Map

Track Data

SID SEASON NUMBER BASIN SUBBASIN NAME ISO_TIME NATURE LAT LON WMO_WIND WMO_PRES WMO_AGENCY TRACK_TYPE DIST2LAND LANDFALL IFLAG USA_AGENCY USA_ATCF_ID USA_LAT USA_LON USA_RECORD USA_STATUS USA_WIND USA_PRES USA_SSHS USA_R34_NE USA_R34_SE USA_R34_SW USA_R34_NW USA_R50_NE USA_R50_SE USA_R50_SW USA_R50_NW USA_R64_NE USA_R64_SE USA_R64_SW USA_R64_NW USA_POCI USA_ROCI USA_RMW USA_EYE TOKYO_LAT TOKYO_LON TOKYO_GRADE TOKYO_WIND TOKYO_PRES TOKYO_R50_DIR TOKYO_R50_LONG TOKYO_R50_SHORT TOKYO_R30_DIR TOKYO_R30_LONG TOKYO_R30_SHORT TOKYO_LAND CMA_LAT CMA_LON CMA_CAT CMA_WIND CMA_PRES HKO_LAT HKO_LON HKO_CAT HKO_WIND HKO_PRES NEWDELHI_LAT NEWDELHI_LON NEWDELHI_GRADE NEWDELHI_WIND NEWDELHI_PRES NEWDELHI_CI NEWDELHI_DP NEWDELHI_POCI REUNION_LAT REUNION_LON REUNION_TYPE REUNION_WIND REUNION_PRES REUNION_TNUM REUNION_CI REUNION_RMW REUNION_R34_NE REUNION_R34_SE REUNION_R34_SW REUNION_R34_NW REUNION_R50_NE REUNION_R50_SE REUNION_R50_SW REUNION_R50_NW REUNION_R64_NE REUNION_R64_SE REUNION_R64_SW REUNION_R64_NW BOM_LAT BOM_LON BOM_TYPE BOM_WIND BOM_PRES BOM_TNUM BOM_CI BOM_RMW BOM_R34_NE BOM_R34_SE BOM_R34_SW BOM_R34_NW BOM_R50_NE BOM_R50_SE BOM_R50_SW BOM_R50_NW BOM_R64_NE BOM_R64_SE BOM_R64_SW BOM_R64_NW BOM_ROCI BOM_POCI BOM_EYE BOM_POS_METHOD BOM_PRES_METHOD NADI_LAT NADI_LON NADI_CAT NADI_WIND NADI_PRES WELLINGTON_LAT WELLINGTON_LON WELLINGTON_WIND WELLINGTON_PRES DS824_LAT DS824_LON DS824_STAGE DS824_WIND DS824_PRES TD9636_LAT TD9636_LON TD9636_STAGE TD9636_WIND TD9636_PRES TD9635_LAT TD9635_LON TD9635_WIND TD9635_PRES TD9635_ROCI NEUMANN_LAT NEUMANN_LON NEUMANN_CLASS NEUMANN_WIND NEUMANN_PRES MLC_LAT MLC_LON MLC_CLASS MLC_WIND MLC_PRES USA_GUST BOM_GUST BOM_GUST_PER REUNION_GUST REUNION_GUST_PER USA_SEAHGT USA_SEARAD_NE USA_SEARAD_SE USA_SEARAD_SW USA_SEARAD_NW STORM_SPEED STORM_DIR
1926253N26306 1926 41 NA NA NOT_NAMED 1926-09-10 06:00:00 TS 25.6000 -54.3000 60 hurdat_atl main 1414 1412 O_____________ hurdat_atl AL051926 25.6000 -54.3000 TS 60 0 4 335
1926253N26306 1926 41 NA NA NOT_NAMED 1926-09-10 09:00:00 TS 25.8000 -54.3999 main 1418 1416 P_____________ AL051926 25.8000 -54.3999 TS 62 0 4 336
1926253N26306 1926 41 NA NA NOT_NAMED 1926-09-10 12:00:00 TS 26.0000 -54.5000 65 hurdat_atl main 1422 1420 O_____________ hurdat_atl AL051926 26.0000 -54.5000 HU 65 1 4 336
1926253N26306 1926 41 NA NA NOT_NAMED 1926-09-10 15:00:00 TS 26.2000 -54.6000 main 1427 1425 P_____________ AL051926 26.2000 -54.6000 HU 67 1 4 336
1926253N26306 1926 41 NA NA NOT_NAMED 1926-09-10 18:00:00 TS 26.4000 -54.7000 70 hurdat_atl main 1432 1430 O_____________ hurdat_atl AL051926 26.4000 -54.7000 HU 70 1 4 335
1926253N26306 1926 41 NA NA NOT_NAMED 1926-09-10 21:00:00 TS 26.5925 -54.8075 main 1437 1436 P_____________ AL051926 26.5925 -54.8075 HU 70 1 4 336
1926253N26306 1926 41 NA NA NOT_NAMED 1926-09-11 00:00:00 TS 26.8000 -54.9000 70 hurdat_atl main 1443 1443 O_____________ hurdat_atl AL051926 26.8000 -54.9000 HU 70 1 5 344
1926253N26306 1926 41 NA NA NOT_NAMED 1926-09-11 03:00:00 TS 27.0350 -54.9576 main 1449 1449 P_____________ AL051926 27.0350 -54.9576 HU 72 1 5 350
1926253N26306 1926 41 NA NA NOT_NAMED 1926-09-11 06:00:00 TS 27.3000 -55.0000 75 hurdat_atl main 1471 1471 O_____________ hurdat_atl AL051926 27.3000 -55.0000 HU 75 1 6 352
1926253N26306 1926 41 NA NA NOT_NAMED 1926-09-11 09:00:00 TS 27.5775 -55.0500 main 1485 1485 P_____________ AL051926 27.5775 -55.0500 HU 75 1 6 352
1926253N26306 1926 41 NA NA NOT_NAMED 1926-09-11 12:00:00 TS 27.9000 -55.1000 75 hurdat_atl main 1508 1508 O_____________ hurdat_atl AL051926 27.9000 -55.1000 HU 75 1 7 353
1926253N26306 1926 41 NA NA NOT_NAMED 1926-09-11 15:00:00 TS 28.2850 -55.1500 main 1531 1531 P_____________ AL051926 28.2850 -55.1500 HU 77 1 8 354
1926253N26306 1926 41 NA NA NOT_NAMED 1926-09-11 18:00:00 TS 28.7000 -55.2000 80 hurdat_atl main 1562 1562 O_____________ hurdat_atl AL051926 28.7000 -55.2000 HU 80 1 8 353
1926253N26306 1926 41 NA NA NOT_NAMED 1926-09-11 21:00:00 TS 29.1000 -55.2575 main 1588 1588 P_____________ AL051926 29.1000 -55.2575 HU 82 1 8 354
1926253N26306 1926 41 NA NA NOT_NAMED 1926-09-12 00:00:00 TS 29.5000 -55.3000 85 hurdat_atl main 1620 1620 O_____________ hurdat_atl AL051926 29.5000 -55.3000 HU 85 2 8 357
1926253N26306 1926 41 NA NA NOT_NAMED 1926-09-12 03:00:00 TS 29.9075 -55.3076 main 1654 1654 P_____________ AL051926 29.9075 -55.3076 HU 87 2 8 1
1926253N26306 1926 41 NA NA NOT_NAMED 1926-09-12 06:00:00 TS 30.3000 -55.3000 90 hurdat_atl main 1687 1674 O_____________ hurdat_atl AL051926 30.3000 -55.3000 HU 90 2 8 0
1926253N26306 1926 41 NA NA NOT_NAMED 1926-09-12 09:00:00 TS 30.6800 -55.3074 main 1674 1645 P_____________ AL051926 30.6800 -55.3074 HU 90 2 7 0
1926253N26306 1926 41 NA NA NOT_NAMED 1926-09-12 12:00:00 TS 31.0000 -55.3000 90 hurdat_atl main 1645 1626 O_____________ hurdat_atl AL051926 31.0000 -55.3000 HU 90 2 5 4
1926253N26306 1926 41 NA NA NOT_NAMED 1926-09-12 15:00:00 TS 31.2225 -55.2650 main 1626 1611 P_____________ AL051926 31.2225 -55.2650 HU 90 2 4 12
1926253N26306 1926 41 NA NA NOT_NAMED 1926-09-12 18:00:00 TS 31.4000 -55.2000 90 hurdat_atl main 1611 1597 O_____________ hurdat_atl AL051926 31.4000 -55.2000 HU 90 2 4 20
1926253N26306 1926 41 NA NA NOT_NAMED 1926-09-12 21:00:00 TS 31.6000 -55.1075 main 1597 1581 P_____________ AL051926 31.6000 -55.1075 HU 90 2 4 23
1926253N26306 1926 41 NA NA NOT_NAMED 1926-09-13 00:00:00 TS 31.8000 -55.0000 90 hurdat_atl main 1581 1563 O_____________ hurdat_atl AL051926 31.8000 -55.0000 HU 90 2 4 22
1926253N26306 1926 41 NA NA NOT_NAMED 1926-09-13 03:00:00 TS 32.0075 -54.9074 main 1563 1545 P_____________ AL051926 32.0075 -54.9074 HU 85 2 4 23
1926253N26306 1926 41 NA NA NOT_NAMED 1926-09-13 06:00:00 TS 32.2000 -54.8000 80 hurdat_atl main 1545 1527 O_____________ hurdat_atl AL051926 32.2000 -54.8000 HU 80 1 4 30
1926253N26306 1926 41 NA NA NOT_NAMED 1926-09-13 09:00:00 TS 32.3650 -54.6650 main 1527 1519 P_____________ AL051926 32.3650 -54.6650 HU 80 1 4 40
1926253N26306 1926 41 NA NA NOT_NAMED 1926-09-13 12:00:00 TS 32.5000 -54.5000 80 hurdat_atl main 1523 1515 O_____________ hurdat_atl AL051926 32.5000 -54.5000 HU 80 1 4 49
1926253N26306 1926 41 NA NA NOT_NAMED 1926-09-13 15:00:00 TS 32.6225 -54.3075 main 1519 1511 P_____________ AL051926 32.6225 -54.3075 HU 75 1 4 59
1926253N26306 1926 41 NA NA NOT_NAMED 1926-09-13 18:00:00 TS 32.7000 -54.1000 70 hurdat_atl main 1515 1515 O_____________ hurdat_atl AL051926 32.7000 -54.1000 HU 70 1 4 72
1926253N26306 1926 41 NA NA NOT_NAMED 1926-09-13 21:00:00 TS 32.7299 -53.9075 main 1522 1522 P_____________ AL051926 32.7299 -53.9075 HU 65 1 3 90
1926253N26306 1926 41 NA NA NOT_NAMED 1926-09-14 00:00:00 TS 32.7000 -53.7000 60 hurdat_atl main 1529 1529 O_____________ hurdat_atl AL051926 32.7000 -53.7000 TS 60 0 4 105
1926253N26306 1926 41 NA NA NOT_NAMED 1926-09-14 03:00:00 TS 32.6300 -53.4576 main 1546 1546 P_____________ AL051926 32.6300 -53.4576 TS 55 0 5 115
1926253N26306 1926 41 NA NA NOT_NAMED 1926-09-14 06:00:00 TS 32.5000 -53.2000 50 hurdat_atl main 1567 1567 O_____________ hurdat_atl AL051926 32.5000 -53.2000 TS 50 0 5 126
1926253N26306 1926 41 NA NA NOT_NAMED 1926-09-14 09:00:00 TS 32.3149 -52.9500 main 1591 1591 P_____________ AL051926 32.3149 -52.9500 TS 45 0 6 133
1926253N26306 1926 41 NA NA NOT_NAMED 1926-09-14 12:00:00 TS 32.1000 -52.7000 40 hurdat_atl main 1614 1614 O_____________ hurdat_atl AL051926 32.1000 -52.7000 TS 40 0 6 135
1926253N26306 1926 41 NA NA NOT_NAMED 1926-09-14 15:00:00 TS 31.8951 -52.4499 main 1637 1637 P_____________ AL051926 31.8951 -52.4499 TS 35 0 6 133
1926253N26306 1926 41 NA NA NOT_NAMED 1926-09-14 18:00:00 TS 31.7000 -52.2000 30 hurdat_atl main 1660 O_____________ hurdat_atl AL051926 31.7000 -52.2000 TD 30 -1 6 133

About IBTrACS Database

This database is a web-friendly format of International Best Track Archive for Climate Stewardship (IBTrACS), a global best track data archive curated by NOAA dating back to 1842.

Updated: 2021-10-21